Time;durP1;ratioP1;P1;durP2;ratioP2;P2;SDS_P1;SDS_P2;PMS_P1;PMS_P2;Temp;Humidity;BMP_temperature;BMP_pressure;BME280_temperature;BME280_humidity;BME280_pressure;Samples;Min_cycle;Max_cycle;Signal;HPM_P1;HPM_P2
2022/01/14 00:00:55;;;;;;;13.15;8.05;;;;;;;;;;6274150;22;20427;-64
2022/01/14 00:03:21;;;;;;;16.25;11.18;;;;;;;;;;6272619;22;19999;-64
2022/01/14 00:05:47;;;;;;;16.67;11.23;;;;;;;;;;6272890;22;20007;-63
2022/01/14 00:08:13;;;;;;;15.07;10.68;;;;;;;;;;6272991;22;20340;-63
2022/01/14 00:10:41;;;;;;;13.13;7.22;;;;;;;;;;6272714;22;20004;-64
2022/01/14 00:13:26;;;;;;;12.77;7.72;;;;;;;;;;6273307;22;20026;-63
2022/01/14 00:15:52;;;;;;;15.27;8.10;;;;;;;;;;6273825;22;20118;-64
2022/01/14 00:18:18;;;;;;;13.63;8.40;;;;;;;;;;6273275;22;20004;-64
2022/01/14 00:20:45;;;;;;;13.25;8.82;;;;;;;;;;6272113;22;20059;-64
2022/01/14 00:23:11;;;;;;;17.38;8.82;;;;;;;;;;6273600;22;20050;-65
2022/01/14 00:33:50;;;;;;;10.82;5.82;;;;;;;;;;6273140;22;20014;-64
2022/01/14 00:36:16;;;;;;;10.88;6.80;;;;;;;;;;6272423;22;20018;-64
2022/01/14 00:38:42;;;;;;;12.75;6.30;;;;;;;;;;6273555;22;20735;-63
2022/01/14 00:41:09;;;;;;;13.75;7.78;;;;;;;;;;6271143;22;20063;-63
2022/01/14 00:43:37;;;;;;;14.63;7.93;;;;;;;;;;6276790;22;20006;-64
2022/01/14 00:46:03;;;;;;;11.02;7.20;;;;;;;;;;6275093;22;20541;-63
2022/01/14 00:48:29;;;;;;;9.48;5.97;;;;;;;;;;6272884;22;20000;-64
2022/01/14 00:50:55;;;;;;;11.25;6.90;;;;;;;;;;6272308;22;20141;-64
2022/01/14 00:53:21;;;;;;;11.13;6.35;;;;;;;;;;6273243;22;20000;-65
2022/01/14 00:56:05;;;;;;;9.82;6.18;;;;;;;;;;6272221;22;20363;-64
2022/01/14 01:01:16;;;;;;;10.25;6.22;;;;;;;;;;6273571;22;20169;-63
2022/01/14 01:03:42;;;;;;;8.93;6.18;;;;;;;;;;6272331;22;20015;-63
2022/01/14 01:06:08;;;;;;;10.70;6.40;;;;;;;;;;6272714;22;19996;-64
2022/01/14 01:08:35;;;;;;;9.20;5.90;;;;;;;;;;6272531;22;20018;-64
2022/01/14 01:11:04;;;;;;;10.13;6.72;;;;;;;;;;6272811;22;20034;-63
2022/01/14 01:13:35;;;;;;;8.80;6.25;;;;;;;;;;6271758;22;20002;-64
2022/01/14 01:16:01;;;;;;;16.23;9.70;;;;;;;;;;6273585;22;20021;-64
2022/01/14 01:18:27;;;;;;;12.40;8.77;;;;;;;;;;6272537;22;20038;-64
2022/01/14 01:20:53;;;;;;;18.00;11.32;;;;;;;;;;6271742;22;20010;-63
2022/01/14 01:23:20;;;;;;;11.98;8.00;;;;;;;;;;6272402;22;20007;-63
2022/01/14 01:25:53;;;;;;;13.23;6.45;;;;;;;;;;6272680;22;20023;-64
2022/01/14 01:28:19;;;;;;;13.02;7.10;;;;;;;;;;6273852;22;20275;-63
2022/01/14 01:30:51;;;;;;;12.25;7.40;;;;;;;;;;6273311;22;20019;-64
2022/01/14 01:33:18;;;;;;;11.50;6.85;;;;;;;;;;6271683;22;20003;-63
2022/01/14 01:35:45;;;;;;;9.40;6.93;;;;;;;;;;6272753;22;19999;-64
2022/01/14 01:38:16;;;;;;;9.93;6.28;;;;;;;;;;6272227;22;20008;-65
2022/01/14 01:40:47;;;;;;;10.43;6.43;;;;;;;;;;6273043;22;19999;-63
2022/01/14 01:43:13;;;;;;;11.75;7.18;;;;;;;;;;6271550;22;20003;-63
2022/01/14 01:45:40;;;;;;;8.70;6.70;;;;;;;;;;6272250;22;20015;-63
2022/01/14 01:48:06;;;;;;;13.82;7.30;;;;;;;;;;6272247;22;20010;-63
2022/01/14 01:50:36;;;;;;;10.27;6.45;;;;;;;;;;6274760;22;20007;-63
2022/01/14 01:53:04;;;;;;;11.02;7.22;;;;;;;;;;6273027;22;20000;-63
2022/01/14 01:55:30;;;;;;;8.25;6.63;;;;;;;;;;6272048;22;20015;-63
2022/01/14 01:57:56;;;;;;;12.63;9.15;;;;;;;;;;6271734;22;20045;-63
2022/01/14 02:00:25;;;;;;;15.85;10.52;;;;;;;;;;6273336;22;20070;-62
2022/01/14 02:02:51;;;;;;;9.65;7.68;;;;;;;;;;6271761;22;20346;-63
2022/01/14 02:05:17;;;;;;;14.45;8.20;;;;;;;;;;6272321;22;20007;-63
2022/01/14 02:07:44;;;;;;;9.80;6.45;;;;;;;;;;6272017;22;20015;-63
2022/01/14 02:10:10;;;;;;;11.75;7.40;;;;;;;;;;6272549;22;20007;-64
2022/01/14 02:12:45;;;;;;;11.52;7.55;;;;;;;;;;6270393;22;20011;-63
2022/01/14 02:15:25;;;;;;;11.85;7.57;;;;;;;;;;6272651;22;19999;-63
2022/01/14 02:23:25;;;;;;;10.60;6.82;;;;;;;;;;6147842;23;20060;-64
2022/01/14 02:25:51;;;;;;;13.98;8.93;;;;;;;;;;6244360;22;20386;-64
2022/01/14 02:28:18;;;;;;;10.90;7.57;;;;;;;;;;6271504;22;20010;-66
2022/01/14 02:30:45;;;;;;;13.73;7.45;;;;;;;;;;6273788;22;20095;-64
2022/01/14 02:33:12;;;;;;;9.75;6.97;;;;;;;;;;6270820;22;20046;-63
2022/01/14 02:35:39;;;;;;;14.68;8.45;;;;;;;;;;6271890;22;20053;-64
2022/01/14 02:38:06;;;;;;;13.90;9.15;;;;;;;;;;6271840;22;20000;-64
2022/01/14 02:40:32;;;;;;;9.45;7.20;;;;;;;;;;6271759;22;20011;-64
2022/01/14 02:43:00;;;;;;;10.38;6.88;;;;;;;;;;6272621;22;20004;-64
2022/01/14 02:45:33;;;;;;;11.80;7.00;;;;;;;;;;6270054;22;20039;-64
2022/01/14 02:47:59;;;;;;;11.88;7.40;;;;;;;;;;6271567;22;20014;-63
2022/01/14 02:50:27;;;;;;;14.93;10.20;;;;;;;;;;6272564;22;20031;-67
2022/01/14 02:52:57;;;;;;;15.75;8.73;;;;;;;;;;6273363;22;20008;-64
2022/01/14 02:55:29;;;;;;;12.48;8.27;;;;;;;;;;6271829;22;19996;-63
2022/01/14 02:57:56;;;;;;;17.23;8.73;;;;;;;;;;6275801;22;20004;-64
2022/01/14 03:00:28;;;;;;;10.70;8.40;;;;;;;;;;6269550;22;20010;-64
2022/01/14 03:02:54;;;;;;;22.27;10.65;;;;;;;;;;6272105;22;20004;-64
2022/01/14 03:05:21;;;;;;;13.93;9.40;;;;;;;;;;6271051;22;20008;-64
2022/01/14 03:07:48;;;;;;;16.30;9.40;;;;;;;;;;6271291;22;20010;-64
2022/01/14 03:10:15;;;;;;;16.00;11.43;;;;;;;;;;6271824;22;20354;-63
2022/01/14 03:12:42;;;;;;;16.25;9.90;;;;;;;;;;6272631;22;20010;-63
2022/01/14 03:15:09;;;;;;;11.80;8.40;;;;;;;;;;6270038;22;20694;-63
2022/01/14 03:17:35;;;;;;;16.75;8.43;;;;;;;;;;6271725;22;20488;-64
2022/01/14 03:20:02;;;;;;;13.32;9.07;;;;;;;;;;6271496;22;19995;-64
2022/01/14 03:22:33;;;;;;;12.57;7.90;;;;;;;;;;6272223;22;20002;-64
2022/01/14 03:27:44;;;;;;;11.82;8.50;;;;;;;;;;6272390;22;20084;-64
2022/01/14 03:30:12;;;;;;;17.35;9.27;;;;;;;;;;6273810;22;20011;-64
2022/01/14 03:32:38;;;;;;;15.48;9.43;;;;;;;;;;6273254;22;20000;-62
2022/01/14 03:35:04;;;;;;;14.80;8.70;;;;;;;;;;6275542;22;20397;-63
2022/01/14 03:37:31;;;;;;;12.52;8.40;;;;;;;;;;6275891;22;20020;-63
2022/01/14 03:39:57;;;;;;;12.68;7.72;;;;;;;;;;6271769;22;20086;-63
2022/01/14 03:42:23;;;;;;;9.80;7.38;;;;;;;;;;6273102;22;20173;-63
2022/01/14 03:44:49;;;;;;;10.10;7.28;;;;;;;;;;6273672;22;20057;-63
2022/01/14 03:47:16;;;;;;;8.55;6.63;;;;;;;;;;6273922;22;20003;-63
2022/01/14 03:49:42;;;;;;;11.20;7.40;;;;;;;;;;6274358;22;19995;-63
2022/01/14 03:52:08;;;;;;;10.07;6.15;;;;;;;;;;6273572;22;20010;-64
2022/01/14 03:54:34;;;;;;;9.23;6.47;;;;;;;;;;6273465;22;20023;-63
2022/01/14 03:57:00;;;;;;;8.45;7.13;;;;;;;;;;6270779;22;20370;-64
2022/01/14 03:59:26;;;;;;;11.43;7.03;;;;;;;;;;6273296;22;20000;-67
2022/01/14 04:01:52;;;;;;;14.15;7.13;;;;;;;;;;6272774;22;20035;-64
2022/01/14 04:04:18;;;;;;;10.23;6.78;;;;;;;;;;6273490;22;20007;-64
2022/01/14 04:06:44;;;;;;;7.80;6.30;;;;;;;;;;6272941;22;20426;-64
2022/01/14 04:09:10;;;;;;;10.90;7.22;;;;;;;;;;6273725;22;20000;-63
2022/01/14 04:11:38;;;;;;;9.82;6.57;;;;;;;;;;6272266;22;20008;-65
2022/01/14 04:15:36;;;;;;;10.60;7.57;;;;;;;;;;6273077;22;20066;-63
2022/01/14 04:16:54;;;;;;;8.38;6.70;;;;;;;;;;6272418;22;20078;-68
2022/01/14 04:19:20;;;;;;;10.02;6.75;;;;;;;;;;6273202;22;20010;-64
2022/01/14 04:21:46;;;;;;;9.98;6.85;;;;;;;;;;6272936;22;20079;-63
2022/01/14 04:24:12;;;;;;;13.63;6.97;;;;;;;;;;6273906;22;20485;-63
2022/01/14 04:26:38;;;;;;;8.95;7.20;;;;;;;;;;6272988;22;20050;-63
2022/01/14 04:29:04;;;;;;;9.85;6.47;;;;;;;;;;6273326;22;20010;-63
2022/01/14 04:31:30;;;;;;;8.25;6.93;;;;;;;;;;6272113;22;20008;-64
2022/01/14 04:33:56;;;;;;;10.93;7.10;;;;;;;;;;6273408;22;20430;-64
2022/01/14 04:36:22;;;;;;;13.63;6.95;;;;;;;;;;6272358;22;20000;-67
2022/01/14 04:38:49;;;;;;;10.27;6.57;;;;;;;;;;6272752;22;20000;-64
2022/01/14 04:41:15;;;;;;;10.60;6.80;;;;;;;;;;6272510;22;20007;-64
2022/01/14 04:43:41;;;;;;;11.02;7.32;;;;;;;;;;6272630;22;20453;-63
2022/01/14 04:48:34;;;;;;;9.00;6.30;;;;;;;;;;6273243;22;20422;-63
2022/01/14 04:51:01;;;;;;;9.60;6.88;;;;;;;;;;6271878;22;20431;-64
2022/01/14 04:53:27;;;;;;;7.82;6.38;;;;;;;;;;6272676;22;20007;-63
2022/01/14 04:55:55;;;;;;;11.80;6.95;;;;;;;;;;6272457;22;20033;-63
2022/01/14 04:58:21;;;;;;;12.68;6.97;;;;;;;;;;6273275;22;19999;-63
2022/01/14 05:00:47;;;;;;;7.32;6.03;;;;;;;;;;6271757;22;20671;-64
2022/01/14 05:03:13;;;;;;;10.18;6.45;;;;;;;;;;6272698;22;20003;-64
2022/01/14 05:05:43;;;;;;;12.85;6.72;;;;;;;;;;6272670;22;20004;-64
2022/01/14 05:08:12;;;;;;;9.85;6.40;;;;;;;;;;6272356;22;20003;-64
2022/01/14 05:13:20;;;;;;;11.23;6.38;;;;;;;;;;6282015;22;20085;-64
2022/01/14 05:15:46;;;;;;;8.57;6.57;;;;;;;;;;6273485;22;20007;-64
2022/01/14 05:18:12;;;;;;;10.82;6.85;;;;;;;;;;6272027;22;20411;-63
2022/01/14 05:20:38;;;;;;;9.10;7.43;;;;;;;;;;6272823;22;20049;-63
2022/01/14 05:23:05;;;;;;;10.98;6.93;;;;;;;;;;6272147;22;20000;-63
2022/01/14 05:25:31;;;;;;;9.65;6.95;;;;;;;;;;6273601;22;20034;-63
2022/01/14 05:27:57;;;;;;;10.88;7.15;;;;;;;;;;6271247;22;20378;-63
2022/01/14 05:30:23;;;;;;;10.57;6.53;;;;;;;;;;6273157;22;20083;-63
2022/01/14 05:32:51;;;;;;;8.15;6.60;;;;;;;;;;6272195;22;20426;-63
2022/01/14 05:35:21;;;;;;;9.77;6.97;;;;;;;;;;6273217;22;20000;-62
2022/01/14 05:37:47;;;;;;;11.43;6.72;;;;;;;;;;6271646;22;19999;-64
2022/01/14 05:40:14;;;;;;;9.25;6.65;;;;;;;;;;6272939;22;20031;-64
2022/01/14 05:42:40;;;;;;;8.75;6.80;;;;;;;;;;6272224;22;20003;-63
2022/01/14 05:45:07;;;;;;;10.77;7.07;;;;;;;;;;6271313;22;20049;-64
2022/01/14 05:47:34;;;;;;;10.63;6.88;;;;;;;;;;6272163;22;20050;-63
2022/01/14 05:50:00;;;;;;;10.80;7.40;;;;;;;;;;6272010;22;19999;-64
2022/01/14 05:52:26;;;;;;;8.48;7.00;;;;;;;;;;6270773;22;20007;-63
2022/01/14 05:54:53;;;;;;;8.85;7.00;;;;;;;;;;6272257;22;20431;-63
2022/01/14 05:57:21;;;;;;;12.75;7.38;;;;;;;;;;6273298;22;20023;-63
2022/01/14 05:59:47;;;;;;;9.35;7.18;;;;;;;;;;6270619;22;20026;-63
2022/01/14 06:02:13;;;;;;;10.35;7.03;;;;;;;;;;6272041;22;20004;-63
2022/01/14 06:04:39;;;;;;;15.93;7.25;;;;;;;;;;6271651;22;20079;-63
2022/01/14 06:07:06;;;;;;;9.23;6.47;;;;;;;;;;6272881;22;20000;-63
2022/01/14 06:09:32;;;;;;;9.70;7.03;;;;;;;;;;6270885;22;20003;-63
2022/01/14 06:11:58;;;;;;;9.75;6.32;;;;;;;;;;6273709;22;20087;-64
2022/01/14 06:14:24;;;;;;;10.70;6.60;;;;;;;;;;6271457;22;20000;-63
2022/01/14 06:16:50;;;;;;;7.32;6.55;;;;;;;;;;6271794;22;20077;-64
2022/01/14 06:19:16;;;;;;;11.30;6.88;;;;;;;;;;6271734;22;20000;-63
2022/01/14 06:21:42;;;;;;;9.20;7.10;;;;;;;;;;6273158;22;20008;-63
2022/01/14 06:24:08;;;;;;;8.05;6.35;;;;;;;;;;6270347;22;20027;-64
2022/01/14 06:26:34;;;;;;;11.55;7.32;;;;;;;;;;6272132;22;20011;-63
2022/01/14 06:29:00;;;;;;;11.13;7.53;;;;;;;;;;6272167;22;20057;-63
2022/01/14 06:31:26;;;;;;;10.75;7.38;;;;;;;;;;6271502;22;20007;-63
2022/01/14 06:33:52;;;;;;;11.27;6.75;;;;;;;;;;6272906;22;20006;-64
2022/01/14 06:36:18;;;;;;;9.65;6.95;;;;;;;;;;6273920;22;20023;-64
2022/01/14 06:38:44;;;;;;;9.07;6.20;;;;;;;;;;6271724;22;20014;-63
2022/01/14 06:41:10;;;;;;;6.95;6.13;;;;;;;;;;6271640;22;20004;-64
2022/01/14 06:43:36;;;;;;;9.30;6.53;;;;;;;;;;6271293;22;20007;-63
2022/01/14 06:46:03;;;;;;;10.43;6.60;;;;;;;;;;6272477;22;20234;-63
2022/01/14 06:48:29;;;;;;;10.45;6.25;;;;;;;;;;6274090;22;20038;-64
2022/01/14 06:50:56;;;;;;;9.68;6.70;;;;;;;;;;6271255;22;20010;-63
2022/01/14 06:53:22;;;;;;;9.10;6.68;;;;;;;;;;6270589;22;20445;-63
2022/01/14 06:55:49;;;;;;;8.30;6.40;;;;;;;;;;6270857;22;20000;-64
2022/01/14 06:58:15;;;;;;;9.52;7.38;;;;;;;;;;6272277;22;20501;-63
2022/01/14 07:00:41;;;;;;;8.57;7.00;;;;;;;;;;6271391;22;20536;-64
2022/01/14 07:03:07;;;;;;;11.07;6.90;;;;;;;;;;6270600;22;20015;-64
2022/01/14 07:05:33;;;;;;;11.43;7.43;;;;;;;;;;6272011;22;20327;-64
2022/01/14 07:08:00;;;;;;;15.35;7.80;;;;;;;;;;6272203;22;20000;-64
2022/01/14 07:10:26;;;;;;;10.23;7.20;;;;;;;;;;6270280;22;20034;-63
2022/01/14 07:12:52;;;;;;;9.13;6.63;;;;;;;;;;6272277;22;20435;-63
2022/01/14 07:15:20;;;;;;;11.10;7.35;;;;;;;;;;6271318;22;20348;-64
2022/01/14 07:17:46;;;;;;;9.13;7.15;;;;;;;;;;6271523;22;19995;-64
2022/01/14 07:20:13;;;;;;;10.52;7.18;;;;;;;;;;6270927;22;20031;-63
2022/01/14 07:22:49;;;;;;;10.13;6.90;;;;;;;;;;6270885;22;20008;-63
2022/01/14 07:25:15;;;;;;;12.20;7.50;;;;;;;;;;6269462;22;20066;-63
2022/01/14 07:27:41;;;;;;;9.57;6.93;;;;;;;;;;6271070;22;19995;-63
2022/01/14 07:30:08;;;;;;;10.05;7.47;;;;;;;;;;6271873;22;20000;-64
2022/01/14 07:32:34;;;;;;;7.22;6.03;;;;;;;;;;6270764;22;20004;-64
2022/01/14 07:35:02;;;;;;;9.30;6.22;;;;;;;;;;6272341;22;20027;-64
2022/01/14 07:37:28;;;;;;;10.13;6.65;;;;;;;;;;6271135;22;19995;-64
2022/01/14 07:39:54;;;;;;;7.50;6.82;;;;;;;;;;6272543;22;20011;-63
2022/01/14 07:42:21;;;;;;;7.57;6.65;;;;;;;;;;6271680;22;20007;-64
2022/01/14 07:44:47;;;;;;;8.73;6.00;;;;;;;;;;6273119;22;20071;-63
2022/01/14 07:47:13;;;;;;;8.38;5.93;;;;;;;;;;6270691;22;20034;-63
2022/01/14 07:49:39;;;;;;;9.10;6.30;;;;;;;;;;6271195;22;20003;-64
2022/01/14 07:52:06;;;;;;;10.93;7.10;;;;;;;;;;6270701;22;20003;-63
2022/01/14 07:54:32;;;;;;;10.45;5.97;;;;;;;;;;6270427;22;19995;-63
2022/01/14 07:57:00;;;;;;;11.45;6.10;;;;;;;;;;6272460;22;20008;-64
2022/01/14 07:59:27;;;;;;;9.70;6.07;;;;;;;;;;6271005;22;20486;-64
2022/01/14 08:01:58;;;;;;;6.82;5.40;;;;;;;;;;6271692;22;20007;-63
2022/01/14 08:04:24;;;;;;;9.43;5.93;;;;;;;;;;6271197;22;20074;-64
2022/01/14 08:06:53;;;;;;;6.80;6.10;;;;;;;;;;6270194;22;20373;-64
2022/01/14 08:09:20;;;;;;;8.82;6.30;;;;;;;;;;6269680;22;20004;-67
2022/01/14 08:11:47;;;;;;;8.52;5.43;;;;;;;;;;6271581;22;20007;-64
2022/01/14 08:14:14;;;;;;;6.90;5.80;;;;;;;;;;6267200;22;20087;-63
2022/01/14 08:16:40;;;;;;;9.50;6.70;;;;;;;;;;6271655;22;20053;-66
2022/01/14 08:19:06;;;;;;;10.27;6.22;;;;;;;;;;6271444;22;20011;-64
2022/01/14 08:21:33;;;;;;;11.02;6.70;;;;;;;;;;6270049;22;20012;-63
2022/01/14 08:23:59;;;;;;;10.50;6.22;;;;;;;;;;6263864;22;20007;-62
2022/01/14 08:26:25;;;;;;;8.45;7.43;;;;;;;;;;6263102;22;20402;-63
2022/01/14 08:28:51;;;;;;;11.75;6.47;;;;;;;;;;6266298;22;20014;-65
2022/01/14 08:31:18;;;;;;;10.88;6.85;;;;;;;;;;6265628;22;20356;-64
2022/01/14 08:33:46;;;;;;;11.80;7.60;;;;;;;;;;6264406;22;20004;-63
2022/01/14 08:36:12;;;;;;;9.90;6.57;;;;;;;;;;6265834;22;19999;-64
2022/01/14 08:38:38;;;;;;;10.88;7.22;;;;;;;;;;6265154;22;20031;-64
2022/01/14 08:41:05;;;;;;;15.40;7.30;;;;;;;;;;6266848;22;20007;-64
2022/01/14 08:43:32;;;;;;;13.82;8.35;;;;;;;;;;6266742;22;20015;-64
2022/01/14 08:45:58;;;;;;;11.15;8.20;;;;;;;;;;6267497;22;20008;-64
2022/01/14 08:48:24;;;;;;;18.05;8.55;;;;;;;;;;6265401;22;20496;-64
2022/01/14 08:50:52;;;;;;;12.77;7.65;;;;;;;;;;6266205;22;20014;-64
2022/01/14 08:53:18;;;;;;;11.40;8.10;;;;;;;;;;6263641;22;20006;-64
2022/01/14 08:55:44;;;;;;;9.07;6.97;;;;;;;;;;6264607;22;20031;-64
2022/01/14 08:58:10;;;;;;;10.57;8.27;;;;;;;;;;6263554;22;20075;-64
2022/01/14 09:00:37;;;;;;;14.20;7.93;;;;;;;;;;6264821;22;20116;-64
2022/01/14 09:03:03;;;;;;;15.60;8.65;;;;;;;;;;6264906;22;20018;-65
2022/01/14 09:05:30;;;;;;;15.27;8.07;;;;;;;;;;6263820;22;20004;-65
2022/01/14 09:07:56;;;;;;;16.48;8.55;;;;;;;;;;6261234;22;20012;-65
2022/01/14 09:10:22;;;;;;;12.82;8.18;;;;;;;;;;6258076;22;20417;-64
2022/01/14 09:12:49;;;;;;;9.85;7.65;;;;;;;;;;6258353;22;20003;-64
2022/01/14 09:15:16;;;;;;;10.77;7.13;;;;;;;;;;6260550;22;20027;-63
2022/01/14 09:17:42;;;;;;;12.25;7.60;;;;;;;;;;6264814;22;20334;-63
2022/01/14 09:20:10;;;;;;;10.00;6.55;;;;;;;;;;6261461;22;20004;-64
2022/01/14 09:22:36;;;;;;;11.63;6.55;;;;;;;;;;6263213;22;20117;-64
2022/01/14 09:25:03;;;;;;;12.63;6.45;;;;;;;;;;6263634;22;20014;-65
2022/01/14 09:27:30;;;;;;;13.43;8.30;;;;;;;;;;6263468;22;20430;-64
2022/01/14 09:29:58;;;;;;;12.05;8.95;;;;;;;;;;6262711;22;20000;-63
2022/01/14 09:32:25;;;;;;;15.38;8.20;;;;;;;;;;6263016;22;20434;-68
2022/01/14 09:34:51;;;;;;;11.18;7.50;;;;;;;;;;6262483;22;20430;-65
2022/01/14 09:37:17;;;;;;;11.90;6.80;;;;;;;;;;6263905;22;20004;-65
2022/01/14 09:39:43;;;;;;;12.13;6.15;;;;;;;;;;6264975;22;20010;-65
2022/01/14 09:42:13;;;;;;;8.40;6.05;;;;;;;;;;6263796;22;20814;-64
2022/01/14 09:44:40;;;;;;;9.20;6.18;;;;;;;;;;6265134;22;20004;-64
2022/01/14 09:47:07;;;;;;;14.07;6.40;;;;;;;;;;6264233;22;20003;-65
2022/01/14 09:49:33;;;;;;;14.23;6.93;;;;;;;;;;6261861;22;20076;-65
2022/01/14 09:51:59;;;;;;;22.02;13.88;;;;;;;;;;6262682;22;20035;-64
2022/01/14 09:54:25;;;;;;;11.90;7.55;;;;;;;;;;6263982;22;20007;-65
2022/01/14 09:56:51;;;;;;;8.75;6.90;;;;;;;;;;6263715;22;20006;-65
2022/01/14 09:59:18;;;;;;;14.43;6.88;;;;;;;;;;6265344;22;20003;-65
2022/01/14 10:01:46;;;;;;;9.93;6.20;;;;;;;;;;6263922;22;20700;-65
2022/01/14 10:04:16;;;;;;;10.68;7.15;;;;;;;;;;6264365;22;20277;-64
2022/01/14 10:06:47;;;;;;;9.93;6.85;;;;;;;;;;6264088;22;20015;-64
2022/01/14 10:09:21;;;;;;;12.02;7.88;;;;;;;;;;6264304;22;20054;-64
2022/01/14 10:12:06;;;;;;;11.70;8.30;;;;;;;;;;6263749;22;20004;-65
2022/01/14 10:14:33;;;;;;;9.20;6.65;;;;;;;;;;6263987;22;20420;-64
2022/01/14 10:17:00;;;;;;;10.40;7.38;;;;;;;;;;6263164;22;20083;-64
2022/01/14 10:19:27;;;;;;;24.13;12.40;;;;;;;;;;6264145;22;20065;-64
2022/01/14 10:21:54;;;;;;;12.57;8.75;;;;;;;;;;6258152;22;20054;-64
2022/01/14 10:24:22;;;;;;;12.38;8.50;;;;;;;;;;6260012;22;20007;-64
2022/01/14 10:26:49;;;;;;;12.50;8.88;;;;;;;;;;6257064;22;20006;-64
2022/01/14 10:29:15;;;;;;;17.27;10.18;;;;;;;;;;6260722;22;20050;-64
2022/01/14 10:31:43;;;;;;;18.40;9.18;;;;;;;;;;6257180;22;20039;-65
2022/01/14 10:34:11;;;;;;;13.93;9.63;;;;;;;;;;6258433;22;20011;-65
2022/01/14 10:36:37;;;;;;;16.55;9.80;;;;;;;;;;6260059;22;20738;-65
2022/01/14 10:39:17;;;;;;;12.38;7.80;;;;;;;;;;6260421;22;20015;-66
2022/01/14 10:41:43;;;;;;;11.68;8.95;;;;;;;;;;6256558;22;20433;-65
2022/01/14 10:44:42;;;;;;;12.18;7.38;;;;;;;;;;6257771;22;20847;-64
2022/01/14 10:47:11;;;;;;;18.75;10.27;;;;;;;;;;6208246;22;20012;-65
2022/01/14 10:49:38;;;;;;;17.50;8.63;;;;;;;;;;6260489;22;20071;-64
2022/01/14 10:52:18;;;;;;;15.45;7.40;;;;;;;;;;6264720;22;20469;-64
2022/01/14 10:54:45;;;;;;;21.98;9.13;;;;;;;;;;6263480;22;20022;-64
2022/01/14 10:57:19;;;;;;;21.65;9.25;;;;;;;;;;6265132;22;19999;-64
2022/01/14 10:59:46;;;;;;;16.45;7.97;;;;;;;;;;6266559;22;20004;-64
2022/01/14 11:02:31;;;;;;;16.70;9.35;;;;;;;;;;6266789;22;20482;-64
2022/01/14 11:05:08;;;;;;;12.75;7.72;;;;;;;;;;6266565;22;20086;-66
2022/01/14 11:07:34;;;;;;;18.77;8.38;;;;;;;;;;6261292;22;20003;-65
2022/01/14 11:10:00;;;;;;;13.93;9.27;;;;;;;;;;6259199;22;20031;-69
2022/01/14 11:12:29;;;;;;;19.38;9.88;;;;;;;;;;6261251;22;20008;-64
2022/01/14 11:14:55;;;;;;;18.35;8.93;;;;;;;;;;6262285;22;20422;-65
2022/01/14 11:17:21;;;;;;;21.70;12.10;;;;;;;;;;6263388;22;20000;-65
2022/01/14 11:19:48;;;;;;;11.23;7.38;;;;;;;;;;6261679;22;20003;-65
2022/01/14 11:24:59;;;;;;;11.97;7.23;;;;;;;;;;6261336;22;20018;-64
2022/01/14 11:27:26;;;;;;;11.23;7.20;;;;;;;;;;6261367;22;20316;-64
2022/01/14 11:29:57;;;;;;;9.68;5.88;;;;;;;;;;6259965;22;20031;-66
2022/01/14 11:32:25;;;;;;;10.35;6.60;;;;;;;;;;6257278;22;20011;-65
2022/01/14 11:34:51;;;;;;;9.38;6.47;;;;;;;;;;6261226;22;20003;-65
2022/01/14 11:37:30;;;;;;;11.32;5.80;;;;;;;;;;6258132;22;19999;-65
2022/01/14 11:39:57;;;;;;;12.35;6.18;;;;;;;;;;6261638;22;19999;-64
2022/01/14 11:42:42;;;;;;;10.10;6.45;;;;;;;;;;6262375;22;20015;-65
2022/01/14 11:45:10;;;;;;;11.73;5.13;;;;;;;;;;6262473;22;20050;-64
2022/01/14 11:47:39;;;;;;;7.75;5.57;;;;;;;;;;6259612;22;20042;-65
2022/01/14 11:50:06;;;;;;;7.80;5.53;;;;;;;;;;6262861;22;20007;-64
2022/01/14 11:52:37;;;;;;;7.53;5.20;;;;;;;;;;6261430;22;20068;-64
2022/01/14 11:55:04;;;;;;;10.52;5.63;;;;;;;;;;6263817;22;20003;-65
2022/01/14 11:57:50;;;;;;;8.75;5.88;;;;;;;;;;6261249;22;20004;-65
2022/01/14 12:00:31;;;;;;;11.02;6.65;;;;;;;;;;6262776;22;20000;-65
2022/01/14 12:02:57;;;;;;;10.13;6.25;;;;;;;;;;6261027;22;20053;-65
2022/01/14 12:05:24;;;;;;;8.63;5.90;;;;;;;;;;6259976;22;20449;-65
2022/01/14 12:08:07;;;;;;;8.75;5.88;;;;;;;;;;6258394;22;20000;-66
2022/01/14 12:10:41;;;;;;;10.45;6.75;;;;;;;;;;6258038;22;20014;-65
2022/01/14 12:13:37;;;;;;;17.45;6.50;;;;;;;;;;6260430;22;20075;-65
2022/01/14 12:19:00;;;;;;;;;;;;;;;;;;6270580;22;20099;-66
2022/01/14 12:21:39;;;;;;;8.32;4.78;;;;;;;;;;6261980;22;19903;-66
2022/01/14 12:24:17;;;;;;;9.23;5.40;;;;;;;;;;6259717;22;20003;-66
2022/01/14 12:26:44;;;;;;;11.50;6.43;;;;;;;;;;6258519;22;19999;-67
2022/01/14 12:29:11;;;;;;;10.95;5.82;;;;;;;;;;6260095;22;20068;-68
2022/01/14 12:31:56;;;;;;;9.18;5.43;;;;;;;;;;6259677;22;20019;-68
2022/01/14 12:34:22;;;;;;;11.00;6.95;;;;;;;;;;6260828;22;20003;-67
2022/01/14 12:36:48;;;;;;;9.93;6.53;;;;;;;;;;6259731;22;20105;-68
2022/01/14 12:39:14;;;;;;;6.82;5.28;;;;;;;;;;6262898;22;20008;-67
2022/01/14 12:41:40;;;;;;;12.10;5.60;;;;;;;;;;6262896;22;20458;-68
2022/01/14 12:44:06;;;;;;;10.10;6.05;;;;;;;;;;6262961;22;20170;-67
2022/01/14 12:49:10;;;;;;;8.88;5.60;;;;;;;;;;6273052;22;20454;-67
2022/01/14 12:51:36;;;;;;;6.22;4.07;;;;;;;;;;6262940;22;20723;-68
2022/01/14 12:54:04;;;;;;;14.90;8.35;;;;;;;;;;6262180;22;20552;-68
2022/01/14 12:56:35;;;;;;;11.00;8.20;;;;;;;;;;6264166;22;20438;-68
2022/01/14 12:59:03;;;;;;;6.85;4.80;;;;;;;;;;6263823;22;20003;-67
2022/01/14 13:01:30;;;;;;;8.32;4.63;;;;;;;;;;6265370;22;20063;-67
2022/01/14 13:03:58;;;;;;;8.52;4.50;;;;;;;;;;6266184;22;20004;-67
2022/01/14 13:06:24;;;;;;;9.32;4.00;;;;;;;;;;6266487;22;20035;-67
2022/01/14 13:08:57;;;;;;;7.30;3.78;;;;;;;;;;6265600;22;20004;-67
2022/01/14 13:11:24;;;;;;;8.13;4.50;;;;;;;;;;6264606;22;20007;-67
2022/01/14 13:14:00;;;;;;;5.68;4.32;;;;;;;;;;6262814;22;20014;-67
2022/01/14 13:16:26;;;;;;;7.53;4.90;;;;;;;;;;6264994;22;19999;-67
2022/01/14 13:18:55;;;;;;;6.22;4.30;;;;;;;;;;6262146;22;20004;-67
2022/01/14 13:21:21;;;;;;;4.30;3.90;;;;;;;;;;6261533;22;20065;-67
2022/01/14 13:23:47;;;;;;;8.43;3.88;;;;;;;;;;6261729;22;20014;-68
2022/01/14 13:26:13;;;;;;;9.02;3.70;;;;;;;;;;6264360;22;20073;-68
2022/01/14 13:28:39;;;;;;;7.10;3.17;;;;;;;;;;6261248;22;20008;-68
2022/01/14 13:31:09;;;;;;;6.63;4.05;;;;;;;;;;6261638;22;20051;-67
2022/01/14 13:33:37;;;;;;;4.32;3.40;;;;;;;;;;6263120;22;20414;-67
2022/01/14 13:36:03;;;;;;;8.98;3.53;;;;;;;;;;6265669;22;20003;-66
2022/01/14 13:38:29;;;;;;;5.32;3.45;;;;;;;;;;6261105;22;20330;-67
2022/01/14 13:40:59;;;;;;;5.88;3.42;;;;;;;;;;6262339;22;20034;-67
2022/01/14 13:43:30;;;;;;;7.45;3.25;;;;;;;;;;6262721;22;20007;-67
2022/01/14 13:46:06;;;;;;;7.05;3.65;;;;;;;;;;6263779;22;20012;-67
2022/01/14 13:48:43;;;;;;;4.68;3.10;;;;;;;;;;6262654;22;20007;-66
2022/01/14 13:51:11;;;;;;;6.20;3.30;;;;;;;;;;6264916;22;20007;-68
2022/01/14 13:53:42;;;;;;;7.00;4.90;;;;;;;;;;6261585;22;20010;-67
2022/01/14 13:56:12;;;;;;;8.45;4.50;;;;;;;;;;6261826;22;20370;-66
2022/01/14 13:58:40;;;;;;;7.68;3.67;;;;;;;;;;6261375;22;20004;-67
2022/01/14 14:01:08;;;;;;;11.48;4.75;;;;;;;;;;6262794;22;20012;-67
2022/01/14 14:03:48;;;;;;;11.55;4.05;;;;;;;;;;6262957;22;20015;-66
2022/01/14 14:06:22;;;;;;;6.80;3.85;;;;;;;;;;6263466;22;20019;-66
2022/01/14 14:17:12;;;;;;;10.35;4.80;;;;;;;;;;6255527;22;20014;-67
2022/01/14 14:19:46;;;;;;;8.07;4.18;;;;;;;;;;6262460;22;20010;-67
2022/01/14 14:22:14;;;;;;;11.60;5.40;;;;;;;;;;6260838;22;20003;-67
2022/01/14 14:24:40;;;;;;;17.27;7.63;;;;;;;;;;6261448;22;20004;-67
2022/01/14 14:27:14;;;;;;;8.57;6.65;;;;;;;;;;6265144;22;20035;-66
2022/01/14 14:29:45;;;;;;;11.50;7.67;;;;;;;;;;6262273;22;20488;-67
2022/01/14 14:32:29;;;;;;;15.35;7.97;;;;;;;;;;6261787;22;20015;-66
2022/01/14 14:34:56;;;;;;;10.60;7.95;;;;;;;;;;6262135;22;20014;-65
2022/01/14 14:37:24;;;;;;;16.65;9.20;;;;;;;;;;6262442;22;20020;-68
2022/01/14 14:39:51;;;;;;;17.27;9.63;;;;;;;;;;6259264;22;20462;-68
2022/01/14 14:42:17;;;;;;;13.68;8.68;;;;;;;;;;6259792;22;20007;-65
2022/01/14 14:44:43;;;;;;;15.63;8.52;;;;;;;;;;6259608;22;20035;-67
2022/01/14 14:47:11;;;;;;;10.90;8.40;;;;;;;;;;6261080;22;20008;-66
2022/01/14 14:49:37;;;;;;;18.95;8.10;;;;;;;;;;6264476;22;20004;-65
2022/01/14 14:52:03;;;;;;;14.27;8.45;;;;;;;;;;6266422;22;20012;-66
2022/01/14 14:54:29;;;;;;;14.00;8.95;;;;;;;;;;6264293;22;20040;-64
2022/01/14 14:56:56;;;;;;;13.38;9.43;;;;;;;;;;6260527;22;20000;-65
2022/01/14 14:59:23;;;;;;;12.80;8.20;;;;;;;;;;6260073;22;20003;-65
2022/01/14 15:01:49;;;;;;;14.32;10.18;;;;;;;;;;6257764;22;20004;-65
2022/01/14 15:04:15;;;;;;;12.82;8.07;;;;;;;;;;6259659;22;20011;-65
2022/01/14 15:06:41;;;;;;;15.57;8.77;;;;;;;;;;6260553;22;20003;-65
2022/01/14 15:09:07;;;;;;;14.35;8.55;;;;;;;;;;6260950;22;20004;-67
2022/01/14 15:11:33;;;;;;;15.35;8.10;;;;;;;;;;6258210;22;20008;-65
2022/01/14 15:13:59;;;;;;;10.77;7.85;;;;;;;;;;6260910;22;20004;-65
2022/01/14 15:16:48;;;;;;;12.52;9.77;;;;;;;;;;6257752;22;20066;-64
2022/01/14 15:19:12;;;;;;;13.32;7.22;;;;;;;;;;6262113;22;20439;-64